Benutzungsordnung PDF Drucken E-Mail

 

 

Die Benutzungsordnung für den Verkehrslandeplatz Uetersen/Heist wurde am 01.01./10.01.2006 neu gefasst und von der zuständigen Landesbehörde in Schleswig-Holstein genehmigt und in Kraft gesetzt. Die Benutzungsordnung regelt die Rechte und Pflichten zwischen den Benutzern und dem Halter des Verkehrslandeplatzes. Die öffentlichen Vorschriften für die Benutzung des Verkehrslandeplatzes bleiben unberührt.

Für Fahrzeuge gilt die Straßenbenutzungsordnung.

 

Sie können die Benutzungsordnung hier als PDF-Datei herunterladen.

 

 

(Zum Öffnen benötigen Sie den Adobe Acrobat Reader, den Sie kostenfrei unter http://get.adobe.com/de/reader/ herunterladen können)

 

Zufallsbild

Aktuelle Termine

Mo Di Mi Do Fr Sa So
29 30 31 1 2 3 4
5 6 7 8 9 10 11
12 13 14 15 16 17 18
19 20 21 22 23 24 25
26 27 28 1 2 3 4

Pilotenwetter

[source: ADDS]
METAR
WX-Data not avlb.
(due to wrong input of icao-codes or 'allow_url_fopen' is OFF [] and cURL not enabled [1] on this server!)
TAF
TAF EDDH 201100Z 2012/2118 06009KT 9999 FEW035 BECMG 2018/2020 05004KT TEMPO 2102/2109 4000 BR =